Terminal Aerodrome Forecast
Issued by NWS

Home | Current Version | Previous Version | Graphics & Text | Print | Product List | Glossary On
Versions: 1 2 3 4 5 6 7 8 9 10 11 12 13 14 15 16 17 18 19 20 21 22 23 24 25 26 27 28 29 30 31 32 33 34 35 36 37 38 39 40 41 42
000
FTUS43 KLOT 260055 AAA
TAFMDW
TAF AMD
KMDW 260055Z 2601/2624 26013KT P6SM FEW020 SCT150 OVC250
     FM260400 29009KT P6SM VCSH BKN035 BKN100
     FM260900 32010KT P6SM SCT040 BKN150
     FM261500 33012G20KT P6SM SCT025 BKN200
     FM262000 32013KT P6SM BKN040=

USA.gov is the U.S. government's official web portal to all federal, state and local government web resources and services.